sensor_id;sensor_type;location;lat;lon;timestamp;temperature;humidity
11609;DHT22;5860;52.018;8.536;2023-11-19T00:01:34;9.10;99.90
11609;DHT22;5860;52.018;8.536;2023-11-19T00:04:01;9.10;99.90
11609;DHT22;5860;52.018;8.536;2023-11-19T00:06:28;9.20;99.90
11609;DHT22;5860;52.018;8.536;2023-11-19T00:08:55;9.20;99.90
11609;DHT22;5860;52.018;8.536;2023-11-19T00:11:22;9.20;99.90
11609;DHT22;5860;52.018;8.536;2023-11-19T00:13:52;9.30;99.90
11609;DHT22;5860;52.018;8.536;2023-11-19T00:16:20;9.30;99.90
11609;DHT22;5860;52.018;8.536;2023-11-19T00:18:50;9.20;99.90
11609;DHT22;5860;52.018;8.536;2023-11-19T00:21:17;9.30;99.90
11609;DHT22;5860;52.018;8.536;2023-11-19T00:23:44;9.30;99.90
11609;DHT22;5860;52.018;8.536;2023-11-19T00:26:11;9.20;99.90
11609;DHT22;5860;52.018;8.536;2023-11-19T00:28:39;9.30;99.90
11609;DHT22;5860;52.018;8.536;2023-11-19T00:31:05;9.30;99.90
11609;DHT22;5860;52.018;8.536;2023-11-19T00:33:32;9.40;99.90
11609;DHT22;5860;52.018;8.536;2023-11-19T00:36:05;9.30;99.90
11609;DHT22;5860;52.018;8.536;2023-11-19T00:38:36;9.20;99.90
11609;DHT22;5860;52.018;8.536;2023-11-19T00:41:03;9.30;99.90
11609;DHT22;5860;52.018;8.536;2023-11-19T00:43:30;9.40;99.90
11609;DHT22;5860;52.018;8.536;2023-11-19T00:45:57;9.40;99.90
11609;DHT22;5860;52.018;8.536;2023-11-19T00:48:24;9.40;99.90
11609;DHT22;5860;52.018;8.536;2023-11-19T00:50:51;9.60;99.90
11609;DHT22;5860;52.018;8.536;2023-11-19T00:53:18;9.50;99.90
11609;DHT22;5860;52.018;8.536;2023-11-19T00:55:45;9.70;99.90
11609;DHT22;5860;52.018;8.536;2023-11-19T00:58:13;9.60;99.90
11609;DHT22;5860;52.018;8.536;2023-11-19T01:00:40;9.60;99.90
11609;DHT22;5860;52.018;8.536;2023-11-19T01:03:07;9.70;99.90
11609;DHT22;5860;52.018;8.536;2023-11-19T01:05:37;9.80;99.90
11609;DHT22;5860;52.018;8.536;2023-11-19T01:08:04;9.80;99.90
11609;DHT22;5860;52.018;8.536;2023-11-19T01:10:39;9.70;99.90
11609;DHT22;5860;52.018;8.536;2023-11-19T01:13:08;9.90;99.90
11609;DHT22;5860;52.018;8.536;2023-11-19T01:15:35;9.80;99.90
11609;DHT22;5860;52.018;8.536;2023-11-19T01:18:02;9.90;99.90
11609;DHT22;5860;52.018;8.536;2023-11-19T01:20:32;9.90;99.90
11609;DHT22;5860;52.018;8.536;2023-11-19T01:23:01;9.80;99.90
11609;DHT22;5860;52.018;8.536;2023-11-19T01:25:27;9.80;99.90
11609;DHT22;5860;52.018;8.536;2023-11-19T01:27:55;9.80;99.90
11609;DHT22;5860;52.018;8.536;2023-11-19T01:30:26;9.90;99.90
11609;DHT22;5860;52.018;8.536;2023-11-19T01:32:53;10.00;99.90
11609;DHT22;5860;52.018;8.536;2023-11-19T01:35:20;10.00;99.90
11609;DHT22;5860;52.018;8.536;2023-11-19T01:37:47;10.20;99.90
11609;DHT22;5860;52.018;8.536;2023-11-19T01:40:14;10.10;99.90
11609;DHT22;5860;52.018;8.536;2023-11-19T01:42:42;10.20;99.90
11609;DHT22;5860;52.018;8.536;2023-11-19T01:45:09;10.10;99.90
11609;DHT22;5860;52.018;8.536;2023-11-19T01:47:37;10.20;99.90
11609;DHT22;5860;52.018;8.536;2023-11-19T01:50:07;10.20;99.90
11609;DHT22;5860;52.018;8.536;2023-11-19T01:52:35;10.40;99.90
11609;DHT22;5860;52.018;8.536;2023-11-19T01:55:07;10.40;99.90
11609;DHT22;5860;52.018;8.536;2023-11-19T01:57:36;10.50;99.90
11609;DHT22;5860;52.018;8.536;2023-11-19T02:00:06;10.30;99.90
11609;DHT22;5860;52.018;8.536;2023-11-19T02:02:34;10.40;99.90
11609;DHT22;5860;52.018;8.536;2023-11-19T02:05:01;10.40;99.90
11609;DHT22;5860;52.018;8.536;2023-11-19T02:07:29;10.40;99.90
11609;DHT22;5860;52.018;8.536;2023-11-19T02:09:56;10.40;99.90
11609;DHT22;5860;52.018;8.536;2023-11-19T02:12:26;10.60;99.90
11609;DHT22;5860;52.018;8.536;2023-11-19T02:14:55;10.50;99.90
11609;DHT22;5860;52.018;8.536;2023-11-19T02:17:29;10.70;99.90
11609;DHT22;5860;52.018;8.536;2023-11-19T02:19:58;10.60;99.90
11609;DHT22;5860;52.018;8.536;2023-11-19T02:22:25;10.60;99.90
11609;DHT22;5860;52.018;8.536;2023-11-19T02:24:57;10.60;99.90
11609;DHT22;5860;52.018;8.536;2023-11-19T02:30:26;10.50;99.90
11609;DHT22;5860;52.018;8.536;2023-11-19T02:32:54;10.70;99.90
11609;DHT22;5860;52.018;8.536;2023-11-19T02:35:27;10.60;99.90
11609;DHT22;5860;52.018;8.536;2023-11-19T02:37:55;10.80;99.90
11609;DHT22;5860;52.018;8.536;2023-11-19T02:40:21;10.70;99.90
11609;DHT22;5860;52.018;8.536;2023-11-19T02:42:54;10.60;99.90
11609;DHT22;5860;52.018;8.536;2023-11-19T02:45:23;10.60;99.90
11609;DHT22;5860;52.018;8.536;2023-11-19T02:47:51;10.60;99.90
11609;DHT22;5860;52.018;8.536;2023-11-19T02:50:19;10.70;99.90
11609;DHT22;5860;52.018;8.536;2023-11-19T02:52:54;10.70;99.90
11609;DHT22;5860;52.018;8.536;2023-11-19T02:55:24;10.70;99.90
11609;DHT22;5860;52.018;8.536;2023-11-19T02:57:51;10.80;99.90
11609;DHT22;5860;52.018;8.536;2023-11-19T03:06:26;10.80;99.90
11609;DHT22;5860;52.018;8.536;2023-11-19T03:08:55;10.90;99.90
11609;DHT22;5860;52.018;8.536;2023-11-19T03:11:22;10.90;99.90
11609;DHT22;5860;52.018;8.536;2023-11-19T03:13:50;10.90;99.90
11609;DHT22;5860;52.018;8.536;2023-11-19T03:16:17;10.90;99.90
11609;DHT22;5860;52.018;8.536;2023-11-19T03:18:44;11.00;99.90
11609;DHT22;5860;52.018;8.536;2023-11-19T03:21:11;11.00;99.90
11609;DHT22;5860;52.018;8.536;2023-11-19T03:23:39;11.00;99.90
11609;DHT22;5860;52.018;8.536;2023-11-19T03:26:07;11.10;99.90
11609;DHT22;5860;52.018;8.536;2023-11-19T03:28:35;11.20;99.90
11609;DHT22;5860;52.018;8.536;2023-11-19T03:31:05;11.30;99.90
11609;DHT22;5860;52.018;8.536;2023-11-19T03:33:35;11.30;99.90
11609;DHT22;5860;52.018;8.536;2023-11-19T03:36:02;11.40;99.90
11609;DHT22;5860;52.018;8.536;2023-11-19T03:38:29;11.40;99.90
11609;DHT22;5860;52.018;8.536;2023-11-19T03:40:56;11.40;99.90
11609;DHT22;5860;52.018;8.536;2023-11-19T03:43:23;11.40;99.90
11609;DHT22;5860;52.018;8.536;2023-11-19T03:45:50;11.40;99.90
11609;DHT22;5860;52.018;8.536;2023-11-19T03:48:17;11.50;99.90
11609;DHT22;5860;52.018;8.536;2023-11-19T03:50:44;11.50;99.90
11609;DHT22;5860;52.018;8.536;2023-11-19T03:53:12;11.50;99.90
11609;DHT22;5860;52.018;8.536;2023-11-19T03:55:40;11.50;99.90
11609;DHT22;5860;52.018;8.536;2023-11-19T03:58:07;11.50;99.90
11609;DHT22;5860;52.018;8.536;2023-11-19T04:00:34;11.60;99.90
11609;DHT22;5860;52.018;8.536;2023-11-19T04:03:01;11.60;99.90
11609;DHT22;5860;52.018;8.536;2023-11-19T04:05:29;11.60;99.90
11609;DHT22;5860;52.018;8.536;2023-11-19T04:07:56;11.70;99.90
11609;DHT22;5860;52.018;8.536;2023-11-19T04:10:26;11.80;99.90
11609;DHT22;5860;52.018;8.536;2023-11-19T04:12:54;11.80;99.90
11609;DHT22;5860;52.018;8.536;2023-11-19T04:15:21;11.90;99.90
11609;DHT22;5860;52.018;8.536;2023-11-19T04:17:48;11.90;99.90
11609;DHT22;5860;52.018;8.536;2023-11-19T04:20:15;11.80;99.90
11609;DHT22;5860;52.018;8.536;2023-11-19T04:22:42;12.00;99.90
11609;DHT22;5860;52.018;8.536;2023-11-19T04:25:11;12.00;99.90
11609;DHT22;5860;52.018;8.536;2023-11-19T04:27:38;12.00;99.90
11609;DHT22;5860;52.018;8.536;2023-11-19T04:30:06;12.00;99.90
11609;DHT22;5860;52.018;8.536;2023-11-19T04:32:37;11.90;99.90
11609;DHT22;5860;52.018;8.536;2023-11-19T04:35:04;12.00;99.90
11609;DHT22;5860;52.018;8.536;2023-11-19T04:37:31;12.00;99.90
11609;DHT22;5860;52.018;8.536;2023-11-19T04:39:58;12.10;99.90
11609;DHT22;5860;52.018;8.536;2023-11-19T04:42:26;12.10;99.90
11609;DHT22;5860;52.018;8.536;2023-11-19T04:44:53;12.10;99.90
11609;DHT22;5860;52.018;8.536;2023-11-19T04:47:20;12.10;99.90
11609;DHT22;5860;52.018;8.536;2023-11-19T04:49:47;12.20;99.90
11609;DHT22;5860;52.018;8.536;2023-11-19T04:52:15;12.10;99.90
11609;DHT22;5860;52.018;8.536;2023-11-19T04:54:42;12.10;99.90
11609;DHT22;5860;52.018;8.536;2023-11-19T04:57:12;12.10;99.90
11609;DHT22;5860;52.018;8.536;2023-11-19T04:59:39;12.00;99.90
11609;DHT22;5860;52.018;8.536;2023-11-19T05:02:06;12.00;99.90
11609;DHT22;5860;52.018;8.536;2023-11-19T05:04:34;11.90;99.90
11609;DHT22;5860;52.018;8.536;2023-11-19T05:07:01;11.90;99.90
11609;DHT22;5860;52.018;8.536;2023-11-19T05:09:29;11.90;99.90
11609;DHT22;5860;52.018;8.536;2023-11-19T05:11:57;11.80;99.90
11609;DHT22;5860;52.018;8.536;2023-11-19T05:14:24;11.80;99.90
11609;DHT22;5860;52.018;8.536;2023-11-19T05:16:51;11.70;99.90
11609;DHT22;5860;52.018;8.536;2023-11-19T05:19:18;11.60;99.90
11609;DHT22;5860;52.018;8.536;2023-11-19T05:21:45;11.70;99.90
11609;DHT22;5860;52.018;8.536;2023-11-19T05:24:12;11.80;99.90
11609;DHT22;5860;52.018;8.536;2023-11-19T05:26:39;11.80;99.90
11609;DHT22;5860;52.018;8.536;2023-11-19T05:29:07;11.80;99.90
11609;DHT22;5860;52.018;8.536;2023-11-19T05:31:36;11.70;99.90
11609;DHT22;5860;52.018;8.536;2023-11-19T05:34:05;11.70;99.90
11609;DHT22;5860;52.018;8.536;2023-11-19T05:36:33;11.70;99.90
11609;DHT22;5860;52.018;8.536;2023-11-19T05:38:59;11.60;99.90
11609;DHT22;5860;52.018;8.536;2023-11-19T05:41:26;11.60;99.90
11609;DHT22;5860;52.018;8.536;2023-11-19T05:43:54;11.50;99.90
11609;DHT22;5860;52.018;8.536;2023-11-19T05:46:21;11.60;99.90
11609;DHT22;5860;52.018;8.536;2023-11-19T05:48:48;11.50;99.90
11609;DHT22;5860;52.018;8.536;2023-11-19T05:51:15;11.40;99.90
11609;DHT22;5860;52.018;8.536;2023-11-19T05:53:43;11.40;99.90
11609;DHT22;5860;52.018;8.536;2023-11-19T05:56:10;11.40;99.90
11609;DHT22;5860;52.018;8.536;2023-11-19T05:58:37;11.40;99.90
11609;DHT22;5860;52.018;8.536;2023-11-19T06:01:06;11.50;99.90
11609;DHT22;5860;52.018;8.536;2023-11-19T06:03:35;11.40;99.90
11609;DHT22;5860;52.018;8.536;2023-11-19T06:06:02;11.40;99.90
11609;DHT22;5860;52.018;8.536;2023-11-19T06:08:29;11.40;99.90
11609;DHT22;5860;52.018;8.536;2023-11-19T06:10:57;11.40;99.90
11609;DHT22;5860;52.018;8.536;2023-11-19T06:13:24;11.50;99.90
11609;DHT22;5860;52.018;8.536;2023-11-19T06:15:52;11.50;99.90
11609;DHT22;5860;52.018;8.536;2023-11-19T06:18:19;11.40;99.90
11609;DHT22;5860;52.018;8.536;2023-11-19T06:20:50;11.40;99.90
11609;DHT22;5860;52.018;8.536;2023-11-19T06:23:17;11.30;99.90
11609;DHT22;5860;52.018;8.536;2023-11-19T06:25:44;11.40;99.90
11609;DHT22;5860;52.018;8.536;2023-11-19T06:28:11;11.30;99.90
11609;DHT22;5860;52.018;8.536;2023-11-19T06:30:38;11.20;99.90
11609;DHT22;5860;52.018;8.536;2023-11-19T06:33:05;11.20;99.90
11609;DHT22;5860;52.018;8.536;2023-11-19T06:35:32;11.30;99.90
11609;DHT22;5860;52.018;8.536;2023-11-19T06:38:08;11.10;99.90
11609;DHT22;5860;52.018;8.536;2023-11-19T06:40:35;11.00;99.90
11609;DHT22;5860;52.018;8.536;2023-11-19T06:43:03;11.00;99.90
11609;DHT22;5860;52.018;8.536;2023-11-19T06:45:35;11.10;99.90
11609;DHT22;5860;52.018;8.536;2023-11-19T06:48:04;11.00;99.90
11609;DHT22;5860;52.018;8.536;2023-11-19T06:50:34;11.10;99.90
11609;DHT22;5860;52.018;8.536;2023-11-19T06:53:01;11.10;99.90
11609;DHT22;5860;52.018;8.536;2023-11-19T06:55:27;11.00;99.90
11609;DHT22;5860;52.018;8.536;2023-11-19T06:57:54;11.00;99.90
11609;DHT22;5860;52.018;8.536;2023-11-19T07:00:21;11.00;99.90
11609;DHT22;5860;52.018;8.536;2023-11-19T07:02:48;11.00;99.90
11609;DHT22;5860;52.018;8.536;2023-11-19T07:05:16;11.00;99.90
11609;DHT22;5860;52.018;8.536;2023-11-19T07:07:43;11.00;99.90
11609;DHT22;5860;52.018;8.536;2023-11-19T07:10:13;11.10;99.90
11609;DHT22;5860;52.018;8.536;2023-11-19T07:12:40;11.00;99.90
11609;DHT22;5860;52.018;8.536;2023-11-19T07:15:09;11.10;99.90
11609;DHT22;5860;52.018;8.536;2023-11-19T07:17:36;11.10;99.90
11609;DHT22;5860;52.018;8.536;2023-11-19T07:20:04;11.10;99.90
11609;DHT22;5860;52.018;8.536;2023-11-19T07:22:32;11.10;99.90
11609;DHT22;5860;52.018;8.536;2023-11-19T07:24:59;11.10;99.90
11609;DHT22;5860;52.018;8.536;2023-11-19T07:27:26;11.00;99.90
11609;DHT22;5860;52.018;8.536;2023-11-19T07:29:54;11.10;99.90
11609;DHT22;5860;52.018;8.536;2023-11-19T07:32:21;11.10;99.90
11609;DHT22;5860;52.018;8.536;2023-11-19T07:34:48;11.10;99.90
11609;DHT22;5860;52.018;8.536;2023-11-19T07:37:18;11.10;99.90
11609;DHT22;5860;52.018;8.536;2023-11-19T07:39:45;11.10;99.90
11609;DHT22;5860;52.018;8.536;2023-11-19T07:42:12;11.10;99.90
11609;DHT22;5860;52.018;8.536;2023-11-19T07:44:42;11.10;99.90
11609;DHT22;5860;52.018;8.536;2023-11-19T07:47:09;11.10;99.90
11609;DHT22;5860;52.018;8.536;2023-11-19T07:49:37;11.10;99.90
11609;DHT22;5860;52.018;8.536;2023-11-19T07:52:05;11.10;99.90
11609;DHT22;5860;52.018;8.536;2023-11-19T07:54:47;11.10;99.90
11609;DHT22;5860;52.018;8.536;2023-11-19T07:57:14;11.10;99.90
11609;DHT22;5860;52.018;8.536;2023-11-19T07:59:41;11.10;99.90
11609;DHT22;5860;52.018;8.536;2023-11-19T08:02:08;11.20;99.90
11609;DHT22;5860;52.018;8.536;2023-11-19T08:04:36;11.30;99.90
11609;DHT22;5860;52.018;8.536;2023-11-19T08:07:03;11.40;99.90
11609;DHT22;5860;52.018;8.536;2023-11-19T08:09:30;11.40;99.90
11609;DHT22;5860;52.018;8.536;2023-11-19T08:11:57;11.40;99.90
11609;DHT22;5860;52.018;8.536;2023-11-19T08:14:24;11.50;99.90
11609;DHT22;5860;52.018;8.536;2023-11-19T08:16:51;11.50;99.90
11609;DHT22;5860;52.018;8.536;2023-11-19T08:19:19;11.60;99.90
11609;DHT22;5860;52.018;8.536;2023-11-19T08:21:47;11.60;99.90
11609;DHT22;5860;52.018;8.536;2023-11-19T08:24:13;11.70;99.90
11609;DHT22;5860;52.018;8.536;2023-11-19T08:26:40;11.70;99.90
11609;DHT22;5860;52.018;8.536;2023-11-19T08:29:08;11.70;99.90
11609;DHT22;5860;52.018;8.536;2023-11-19T08:31:35;11.70;99.90
11609;DHT22;5860;52.018;8.536;2023-11-19T08:34:02;11.70;99.90
11609;DHT22;5860;52.018;8.536;2023-11-19T08:36:30;11.70;99.90
11609;DHT22;5860;52.018;8.536;2023-11-19T08:39:01;11.70;99.90
11609;DHT22;5860;52.018;8.536;2023-11-19T08:41:28;11.70;99.90
11609;DHT22;5860;52.018;8.536;2023-11-19T08:43:55;11.70;99.90
11609;DHT22;5860;52.018;8.536;2023-11-19T08:46:21;11.60;99.90
11609;DHT22;5860;52.018;8.536;2023-11-19T08:48:49;11.50;99.90
11609;DHT22;5860;52.018;8.536;2023-11-19T08:51:18;11.50;99.90
11609;DHT22;5860;52.018;8.536;2023-11-19T08:53:45;11.50;99.90
11609;DHT22;5860;52.018;8.536;2023-11-19T08:56:15;11.50;99.90
11609;DHT22;5860;52.018;8.536;2023-11-19T08:58:46;11.50;99.90
11609;DHT22;5860;52.018;8.536;2023-11-19T09:01:13;11.50;99.90
11609;DHT22;5860;52.018;8.536;2023-11-19T09:03:40;11.50;99.90
11609;DHT22;5860;52.018;8.536;2023-11-19T09:06:11;11.60;99.90
11609;DHT22;5860;52.018;8.536;2023-11-19T09:08:38;11.70;99.90
11609;DHT22;5860;52.018;8.536;2023-11-19T09:11:08;11.70;99.90
11609;DHT22;5860;52.018;8.536;2023-11-19T09:13:38;11.80;99.90
11609;DHT22;5860;52.018;8.536;2023-11-19T09:16:06;11.70;99.90
11609;DHT22;5860;52.018;8.536;2023-11-19T09:18:35;11.80;99.90
11609;DHT22;5860;52.018;8.536;2023-11-19T09:21:02;11.80;99.90
11609;DHT22;5860;52.018;8.536;2023-11-19T09:23:30;11.80;99.90
11609;DHT22;5860;52.018;8.536;2023-11-19T09:25:59;11.80;99.90
11609;DHT22;5860;52.018;8.536;2023-11-19T09:28:29;11.80;99.90
11609;DHT22;5860;52.018;8.536;2023-11-19T09:30:56;11.70;99.90
11609;DHT22;5860;52.018;8.536;2023-11-19T09:33:23;11.80;99.90
11609;DHT22;5860;52.018;8.536;2023-11-19T09:35:50;11.80;99.90
11609;DHT22;5860;52.018;8.536;2023-11-19T09:38:17;11.80;99.90
11609;DHT22;5860;52.018;8.536;2023-11-19T09:40:44;11.70;99.90
11609;DHT22;5860;52.018;8.536;2023-11-19T09:43:11;11.70;99.90
11609;DHT22;5860;52.018;8.536;2023-11-19T09:45:48;11.60;99.90
11609;DHT22;5860;52.018;8.536;2023-11-19T09:48:17;11.60;99.90
11609;DHT22;5860;52.018;8.536;2023-11-19T09:50:48;11.70;99.90
11609;DHT22;5860;52.018;8.536;2023-11-19T09:53:16;11.80;99.90
11609;DHT22;5860;52.018;8.536;2023-11-19T09:55:53;11.90;99.90
11609;DHT22;5860;52.018;8.536;2023-11-19T09:58:44;12.10;99.90
11609;DHT22;5860;52.018;8.536;2023-11-19T10:01:14;12.10;69.80
11609;DHT22;5860;52.018;8.536;2023-11-19T10:03:47;12.10;93.20
11609;DHT22;5860;52.018;8.536;2023-11-19T10:06:15;12.10;46.10
11609;DHT22;5860;52.018;8.536;2023-11-19T10:08:43;12.00;1.00
11609;DHT22;5860;52.018;8.536;2023-11-19T10:11:10;12.00;38.30
11609;DHT22;5860;52.018;8.536;2023-11-19T10:13:40;12.00;1.00
11609;DHT22;5860;52.018;8.536;2023-11-19T10:16:13;12.00;10.80
11609;DHT22;5860;52.018;8.536;2023-11-19T10:18:48;12.10;1.00
11609;DHT22;5860;52.018;8.536;2023-11-19T10:21:19;12.30;1.00
11609;DHT22;5860;52.018;8.536;2023-11-19T10:23:54;12.30;1.00
11609;DHT22;5860;52.018;8.536;2023-11-19T10:26:29;12.40;1.00
11609;DHT22;5860;52.018;8.536;2023-11-19T10:28:56;12.60;1.00
11609;DHT22;5860;52.018;8.536;2023-11-19T10:31:23;12.60;1.00
11609;DHT22;5860;52.018;8.536;2023-11-19T10:33:53;12.60;1.00
11609;DHT22;5860;52.018;8.536;2023-11-19T10:36:38;12.70;1.00
11609;DHT22;5860;52.018;8.536;2023-11-19T10:39:07;12.80;99.90
11609;DHT22;5860;52.018;8.536;2023-11-19T10:41:36;12.90;1.00
11609;DHT22;5860;52.018;8.536;2023-11-19T10:44:03;12.70;1.00
11609;DHT22;5860;52.018;8.536;2023-11-19T10:46:40;12.70;99.90
11609;DHT22;5860;52.018;8.536;2023-11-19T10:49:08;12.70;1.00
11609;DHT22;5860;52.018;8.536;2023-11-19T10:51:35;12.60;1.00
11609;DHT22;5860;52.018;8.536;2023-11-19T10:54:04;12.60;1.00
11609;DHT22;5860;52.018;8.536;2023-11-19T10:56:34;12.60;1.00
11609;DHT22;5860;52.018;8.536;2023-11-19T10:59:01;12.70;1.00
11609;DHT22;5860;52.018;8.536;2023-11-19T11:01:48;12.60;1.00
11609;DHT22;5860;52.018;8.536;2023-11-19T11:04:25;12.60;99.90
11609;DHT22;5860;52.018;8.536;2023-11-19T11:06:55;12.50;99.90
11609;DHT22;5860;52.018;8.536;2023-11-19T11:09:23;12.40;99.90
11609;DHT22;5860;52.018;8.536;2023-11-19T11:11:50;12.40;1.00
11609;DHT22;5860;52.018;8.536;2023-11-19T11:14:21;12.40;1.00
11609;DHT22;5860;52.018;8.536;2023-11-19T11:16:48;12.50;1.00
11609;DHT22;5860;52.018;8.536;2023-11-19T11:19:17;12.40;99.90
11609;DHT22;5860;52.018;8.536;2023-11-19T11:21:50;12.30;1.00
11609;DHT22;5860;52.018;8.536;2023-11-19T11:24:42;12.20;1.00
11609;DHT22;5860;52.018;8.536;2023-11-19T11:30:53;11.60;99.90
11609;DHT22;5860;52.018;8.536;2023-11-19T11:36:05;11.60;99.90
11609;DHT22;5860;52.018;8.536;2023-11-19T11:38:37;11.50;99.90
11609;DHT22;5860;52.018;8.536;2023-11-19T11:41:23;11.50;99.90
11609;DHT22;5860;52.018;8.536;2023-11-19T11:43:56;11.60;99.90
11609;DHT22;5860;52.018;8.536;2023-11-19T11:49:01;11.90;99.90
11609;DHT22;5860;52.018;8.536;2023-11-19T11:51:57;11.90;99.90
11609;DHT22;5860;52.018;8.536;2023-11-19T11:57:11;11.70;99.90
11609;DHT22;5860;52.018;8.536;2023-11-19T11:59:45;11.60;99.90
11609;DHT22;5860;52.018;8.536;2023-11-19T12:02:15;11.50;99.90
11609;DHT22;5860;52.018;8.536;2023-11-19T12:04:46;11.40;99.90
11609;DHT22;5860;52.018;8.536;2023-11-19T12:07:17;11.40;99.90
11609;DHT22;5860;52.018;8.536;2023-11-19T12:09:50;11.30;99.90
11609;DHT22;5860;52.018;8.536;2023-11-19T12:12:25;11.20;99.90
11609;DHT22;5860;52.018;8.536;2023-11-19T12:20:07;11.40;99.90
11609;DHT22;5860;52.018;8.536;2023-11-19T12:22:39;11.40;99.90
11609;DHT22;5860;52.018;8.536;2023-11-19T12:25:08;11.60;99.90
11609;DHT22;5860;52.018;8.536;2023-11-19T12:27:47;11.80;99.90
11609;DHT22;5860;52.018;8.536;2023-11-19T12:30:33;11.90;99.90
11609;DHT22;5860;52.018;8.536;2023-11-19T12:33:00;11.90;99.90
11609;DHT22;5860;52.018;8.536;2023-11-19T12:35:27;11.90;99.90
11609;DHT22;5860;52.018;8.536;2023-11-19T12:37:53;12.00;99.90
11609;DHT22;5860;52.018;8.536;2023-11-19T12:40:21;12.10;99.90
11609;DHT22;5860;52.018;8.536;2023-11-19T12:42:49;12.10;99.90
11609;DHT22;5860;52.018;8.536;2023-11-19T12:45:17;12.20;99.90
11609;DHT22;5860;52.018;8.536;2023-11-19T12:47:46;12.30;99.90
11609;DHT22;5860;52.018;8.536;2023-11-19T12:50:18;12.30;72.30
11609;DHT22;5860;52.018;8.536;2023-11-19T12:52:58;12.30;34.20
11609;DHT22;5860;52.018;8.536;2023-11-19T12:55:29;12.10;2.80
11609;DHT22;5860;52.018;8.536;2023-11-19T12:57:57;12.10;41.80
11609;DHT22;5860;52.018;8.536;2023-11-19T13:00:27;12.20;24.80
11609;DHT22;5860;52.018;8.536;2023-11-19T13:02:56;12.10;74.00
11609;DHT22;5860;52.018;8.536;2023-11-19T13:05:31;12.10;6.30
11609;DHT22;5860;52.018;8.536;2023-11-19T13:08:04;12.20;1.00
11609;DHT22;5860;52.018;8.536;2023-11-19T13:10:32;12.30;1.00
11609;DHT22;5860;52.018;8.536;2023-11-19T13:13:08;12.30;1.00
11609;DHT22;5860;52.018;8.536;2023-11-19T13:15:36;12.30;1.00
11609;DHT22;5860;52.018;8.536;2023-11-19T13:18:03;12.20;1.00
11609;DHT22;5860;52.018;8.536;2023-11-19T13:20:30;12.20;1.00
11609;DHT22;5860;52.018;8.536;2023-11-19T13:23:05;12.10;1.00
11609;DHT22;5860;52.018;8.536;2023-11-19T13:25:33;12.20;1.00
11609;DHT22;5860;52.018;8.536;2023-11-19T13:30:30;12.20;1.00
11609;DHT22;5860;52.018;8.536;2023-11-19T13:32:58;12.30;1.00
11609;DHT22;5860;52.018;8.536;2023-11-19T13:35:25;12.50;1.00
11609;DHT22;5860;52.018;8.536;2023-11-19T13:37:54;12.50;1.00
11609;DHT22;5860;52.018;8.536;2023-11-19T13:40:21;12.50;1.00
11609;DHT22;5860;52.018;8.536;2023-11-19T13:42:49;12.40;1.00
11609;DHT22;5860;52.018;8.536;2023-11-19T13:45:16;12.40;1.00
11609;DHT22;5860;52.018;8.536;2023-11-19T13:47:45;12.50;1.00
11609;DHT22;5860;52.018;8.536;2023-11-19T13:50:15;12.50;1.00
11609;DHT22;5860;52.018;8.536;2023-11-19T13:52:44;12.40;1.00
11609;DHT22;5860;52.018;8.536;2023-11-19T13:55:12;12.30;1.00
11609;DHT22;5860;52.018;8.536;2023-11-19T13:57:40;12.20;1.00
11609;DHT22;5860;52.018;8.536;2023-11-19T14:00:09;12.20;1.00
11609;DHT22;5860;52.018;8.536;2023-11-19T14:02:40;12.20;1.00
11609;DHT22;5860;52.018;8.536;2023-11-19T14:05:08;12.00;1.00
11609;DHT22;5860;52.018;8.536;2023-11-19T14:07:36;12.00;1.00
11609;DHT22;5860;52.018;8.536;2023-11-19T14:10:07;12.00;1.00
11609;DHT22;5860;52.018;8.536;2023-11-19T14:12:37;12.00;1.00
11609;DHT22;5860;52.018;8.536;2023-11-19T14:15:05;12.00;1.00
11609;DHT22;5860;52.018;8.536;2023-11-19T14:17:36;12.00;1.00
11609;DHT22;5860;52.018;8.536;2023-11-19T14:20:03;12.00;1.00
11609;DHT22;5860;52.018;8.536;2023-11-19T14:22:43;12.00;1.00
11609;DHT22;5860;52.018;8.536;2023-11-19T14:25:11;12.00;1.00
11609;DHT22;5860;52.018;8.536;2023-11-19T14:27:39;12.10;1.00
11609;DHT22;5860;52.018;8.536;2023-11-19T14:30:11;12.00;1.00
11609;DHT22;5860;52.018;8.536;2023-11-19T14:32:39;12.00;1.00
11609;DHT22;5860;52.018;8.536;2023-11-19T14:35:07;12.10;1.00
11609;DHT22;5860;52.018;8.536;2023-11-19T14:37:34;12.10;1.00
11609;DHT22;5860;52.018;8.536;2023-11-19T14:40:01;12.10;1.00
11609;DHT22;5860;52.018;8.536;2023-11-19T14:42:32;12.10;1.00
11609;DHT22;5860;52.018;8.536;2023-11-19T14:44:59;12.10;1.00
11609;DHT22;5860;52.018;8.536;2023-11-19T14:47:26;12.10;1.00
11609;DHT22;5860;52.018;8.536;2023-11-19T14:49:53;12.10;1.00
11609;DHT22;5860;52.018;8.536;2023-11-19T14:52:20;12.10;99.90
11609;DHT22;5860;52.018;8.536;2023-11-19T14:54:47;12.10;99.90
11609;DHT22;5860;52.018;8.536;2023-11-19T14:57:14;12.10;99.90
11609;DHT22;5860;52.018;8.536;2023-11-19T14:59:41;12.00;1.00
11609;DHT22;5860;52.018;8.536;2023-11-19T15:02:08;11.90;1.00
11609;DHT22;5860;52.018;8.536;2023-11-19T15:04:35;11.80;1.00
11609;DHT22;5860;52.018;8.536;2023-11-19T15:07:02;11.80;1.00
11609;DHT22;5860;52.018;8.536;2023-11-19T15:09:31;11.80;1.00
11609;DHT22;5860;52.018;8.536;2023-11-19T15:11:59;11.80;1.00
11609;DHT22;5860;52.018;8.536;2023-11-19T15:14:26;11.70;1.00
11609;DHT22;5860;52.018;8.536;2023-11-19T15:16:53;11.80;1.00
11609;DHT22;5860;52.018;8.536;2023-11-19T15:19:20;11.70;1.00
11609;DHT22;5860;52.018;8.536;2023-11-19T15:21:47;11.70;1.00
11609;DHT22;5860;52.018;8.536;2023-11-19T15:24:14;11.70;1.00
11609;DHT22;5860;52.018;8.536;2023-11-19T15:26:41;11.70;1.00
11609;DHT22;5860;52.018;8.536;2023-11-19T15:29:08;11.70;1.00
11609;DHT22;5860;52.018;8.536;2023-11-19T15:31:36;11.60;1.00
11609;DHT22;5860;52.018;8.536;2023-11-19T15:34:03;11.60;1.00
11609;DHT22;5860;52.018;8.536;2023-11-19T15:36:30;11.60;1.00
11609;DHT22;5860;52.018;8.536;2023-11-19T15:38:58;11.60;1.00
11609;DHT22;5860;52.018;8.536;2023-11-19T15:41:25;11.50;1.00
11609;DHT22;5860;52.018;8.536;2023-11-19T15:43:54;11.50;1.00
11609;DHT22;5860;52.018;8.536;2023-11-19T15:46:21;11.60;1.00
11609;DHT22;5860;52.018;8.536;2023-11-19T15:48:48;11.60;1.00
11609;DHT22;5860;52.018;8.536;2023-11-19T15:51:15;11.50;1.00
11609;DHT22;5860;52.018;8.536;2023-11-19T15:53:42;11.50;15.70
11609;DHT22;5860;52.018;8.536;2023-11-19T15:56:10;11.50;46.00
11609;DHT22;5860;52.018;8.536;2023-11-19T15:58:37;11.50;42.00
11609;DHT22;5860;52.018;8.536;2023-11-19T16:01:07;11.50;62.20
11609;DHT22;5860;52.018;8.536;2023-11-19T16:03:35;11.50;87.00
11609;DHT22;5860;52.018;8.536;2023-11-19T16:06:05;11.40;99.90
11609;DHT22;5860;52.018;8.536;2023-11-19T16:08:37;11.40;99.90
11609;DHT22;5860;52.018;8.536;2023-11-19T16:11:05;11.30;99.90
11609;DHT22;5860;52.018;8.536;2023-11-19T16:13:34;11.20;99.90
11609;DHT22;5860;52.018;8.536;2023-11-19T16:16:01;11.10;99.90
11609;DHT22;5860;52.018;8.536;2023-11-19T16:18:28;11.00;99.90
11609;DHT22;5860;52.018;8.536;2023-11-19T16:20:55;11.00;99.90
11609;DHT22;5860;52.018;8.536;2023-11-19T16:23:22;10.90;99.90
11609;DHT22;5860;52.018;8.536;2023-11-19T16:25:49;10.80;99.90
11609;DHT22;5860;52.018;8.536;2023-11-19T16:28:16;10.80;99.90